Terminal Aerodrome Forecast
Issued by NWS Goodland, KS

Home | Current Version | Previous Version | Text Only | Print | Product List | Glossary On
Versions: 1 2 3 4 5 6 7 8 9 10 11 12 13 14
000
FTUS43 KGLD 251120
TAFGLD
TAF
KGLD 251120Z 2512/2612 21012KT P6SM FEW150
     FM251500 29011KT P6SM SCT180
     FM251800 33010KT P6SM SCT180
     FM252100 02009KT P6SM VCTS SCT060CB SCT150 PROB30 2521/2523
      30030G45KT 3SM -TSRA BR BKN050CB
     FM260200 02011KT P6SM BKN150
     FM260800 35009KT P6SM SCT050 SCT150=

USA.gov is the U.S. government's official web portal to all federal, state and local government web resources and services.